sensor_id;sensor_type;location;lat;lon;timestamp;pressure;altitude;pressure_sealevel;temperature;humidity
63351;BME280;64988;51.058;17.040;2023-01-28T00:01:38;100827.78;;;1.95;84.20
63351;BME280;64988;51.058;17.040;2023-01-28T00:07:05;100826.22;;;1.89;84.23
63351;BME280;64988;51.058;17.040;2023-01-28T00:12:33;100822.59;;;1.92;84.44
63351;BME280;64988;51.058;17.040;2023-01-28T00:18:01;100830.75;;;1.87;83.96
63351;BME280;64988;51.058;17.040;2023-01-28T00:23:30;100822.66;;;1.90;85.01
63351;BME280;64988;51.058;17.040;2023-01-28T00:28:58;100827.22;;;1.87;85.22
63351;BME280;64988;51.058;17.040;2023-01-28T00:34:26;100821.13;;;1.83;86.03
63351;BME280;64988;51.058;17.040;2023-01-28T00:39:53;100812.19;;;1.84;85.95
63351;BME280;64988;51.058;17.040;2023-01-28T00:45:22;100813.06;;;1.85;86.41
63351;BME280;64988;51.058;17.040;2023-01-28T00:50:49;100810.28;;;1.88;86.45
63351;BME280;64988;51.058;17.040;2023-01-28T00:56:17;100811.91;;;1.93;86.47
63351;BME280;64988;51.058;17.040;2023-01-28T01:01:45;100806.38;;;1.98;86.82
63351;BME280;64988;51.058;17.040;2023-01-28T01:07:13;100802.94;;;1.96;86.53
63351;BME280;64988;51.058;17.040;2023-01-28T01:12:40;100802.84;;;1.97;86.82
63351;BME280;64988;51.058;17.040;2023-01-28T01:18:08;100827.47;;;1.79;86.38
63351;BME280;64988;51.058;17.040;2023-01-28T01:23:35;100821.94;;;1.85;86.01
63351;BME280;64988;51.058;17.040;2023-01-28T01:29:03;100831.91;;;1.79;85.36
63351;BME280;64988;51.058;17.040;2023-01-28T01:34:30;100829.22;;;1.80;85.95
63351;BME280;64988;51.058;17.040;2023-01-28T01:39:57;100832.78;;;1.79;85.23
63351;BME280;64988;51.058;17.040;2023-01-28T01:45:24;100835.19;;;1.87;85.00
63351;BME280;64988;51.058;17.040;2023-01-28T01:51:06;100852.31;;;1.78;85.00
63351;BME280;64988;51.058;17.040;2023-01-28T01:56:38;100860.50;;;1.74;84.84
63351;BME280;64988;51.058;17.040;2023-01-28T02:02:08;100857.66;;;1.78;86.28
63351;BME280;64988;51.058;17.040;2023-01-28T02:07:37;100859.47;;;1.78;86.66
63351;BME280;64988;51.058;17.040;2023-01-28T02:13:05;100864.06;;;1.73;86.49
63351;BME280;64988;51.058;17.040;2023-01-28T02:18:34;100869.38;;;1.73;86.98
63351;BME280;64988;51.058;17.040;2023-01-28T02:29:55;100866.25;;;1.60;87.06
63351;BME280;64988;51.058;17.040;2023-01-28T02:35:30;100870.88;;;1.55;87.33
63351;BME280;64988;51.058;17.040;2023-01-28T02:41:06;100872.69;;;1.53;87.08
63351;BME280;64988;51.058;17.040;2023-01-28T02:46:37;100871.00;;;1.50;87.00
63351;BME280;64988;51.058;17.040;2023-01-28T03:09:21;100871.16;;;1.46;86.55
63351;BME280;64988;51.058;17.040;2023-01-28T03:15:20;100873.53;;;1.55;86.77
63351;BME280;64988;51.058;17.040;2023-01-28T03:33:05;100870.03;;;1.53;86.77
63351;BME280;64988;51.058;17.040;2023-01-28T03:38:52;100872.44;;;1.34;86.42
63351;BME280;64988;51.058;17.040;2023-01-28T03:44:20;100881.13;;;1.39;86.38
63351;BME280;64988;51.058;17.040;2023-01-28T03:50:07;100878.28;;;1.45;86.58
63351;BME280;64988;51.058;17.040;2023-01-28T03:55:51;100878.22;;;1.47;86.40
63351;BME280;64988;51.058;17.040;2023-01-28T04:01:19;100879.78;;;1.54;86.82
63351;BME280;64988;51.058;17.040;2023-01-28T04:06:48;100888.16;;;1.42;86.13
63351;BME280;64988;51.058;17.040;2023-01-28T04:12:35;100897.66;;;1.21;85.79
63351;BME280;64988;51.058;17.040;2023-01-28T04:18:04;100896.94;;;1.16;86.02
63351;BME280;64988;51.058;17.040;2023-01-28T04:23:33;100893.31;;;1.19;85.99
63351;BME280;64988;51.058;17.040;2023-01-28T04:29:03;100895.97;;;1.19;86.05
63351;BME280;64988;51.058;17.040;2023-01-28T04:34:32;100898.38;;;1.26;86.07
63351;BME280;64988;51.058;17.040;2023-01-28T04:40:12;100907.88;;;1.35;86.24
63351;BME280;64988;51.058;17.040;2023-01-28T04:45:42;100912.53;;;1.27;85.69
63351;BME280;64988;51.058;17.040;2023-01-28T04:51:28;100915.00;;;1.33;85.62
63351;BME280;64988;51.058;17.040;2023-01-28T04:57:11;100911.06;;;1.18;86.03
63351;BME280;64988;51.058;17.040;2023-01-28T05:02:40;100928.09;;;1.11;85.85
63351;BME280;64988;51.058;17.040;2023-01-28T05:08:07;100924.53;;;1.12;85.71
63351;BME280;64988;51.058;17.040;2023-01-28T05:13:34;100925.31;;;1.16;85.74
63351;BME280;64988;51.058;17.040;2023-01-28T05:19:03;100924.34;;;1.18;85.43
63351;BME280;64988;51.058;17.040;2023-01-28T05:24:34;100924.44;;;1.15;85.30
63351;BME280;64988;51.058;17.040;2023-01-28T05:30:03;100936.72;;;1.19;85.36
63351;BME280;64988;51.058;17.040;2023-01-28T05:35:33;100939.63;;;1.12;85.15
63351;BME280;64988;51.058;17.040;2023-01-28T05:41:00;100938.53;;;1.17;84.90
63351;BME280;64988;51.058;17.040;2023-01-28T05:46:27;100941.19;;;1.19;84.72
63351;BME280;64988;51.058;17.040;2023-01-28T05:52:20;100950.72;;;1.26;84.92
63351;BME280;64988;51.058;17.040;2023-01-28T05:57:50;100947.47;;;1.16;84.92
63351;BME280;64988;51.058;17.040;2023-01-28T06:03:21;100949.97;;;1.21;84.39
63351;BME280;64988;51.058;17.040;2023-01-28T06:08:49;100948.91;;;1.26;84.72
63351;BME280;64988;51.058;17.040;2023-01-28T06:14:21;100965.09;;;1.19;84.46
63351;BME280;64988;51.058;17.040;2023-01-28T06:20:11;100956.34;;;1.15;84.35
63351;BME280;64988;51.058;17.040;2023-01-28T06:25:40;100967.94;;;1.13;83.76
63351;BME280;64988;51.058;17.040;2023-01-28T06:31:13;100972.22;;;1.17;84.08
63351;BME280;64988;51.058;17.040;2023-01-28T06:36:39;100969.72;;;1.12;83.92
63351;BME280;64988;51.058;17.040;2023-01-28T06:42:07;100976.72;;;1.15;83.75
63351;BME280;64988;51.058;17.040;2023-01-28T06:47:37;100983.63;;;1.22;83.75
63351;BME280;64988;51.058;17.040;2023-01-28T06:53:31;100989.13;;;1.16;83.35
63351;BME280;64988;51.058;17.040;2023-01-28T06:58:58;101000.75;;;1.12;83.55
63351;BME280;64988;51.058;17.040;2023-01-28T07:04:26;101000.53;;;1.19;83.60
63351;BME280;64988;51.058;17.040;2023-01-28T07:09:53;101007.66;;;1.17;83.19
63351;BME280;64988;51.058;17.040;2023-01-28T07:15:20;101016.97;;;1.02;82.95
63351;BME280;64988;51.058;17.040;2023-01-28T07:20:47;101024.66;;;1.13;83.06
63351;BME280;64988;51.058;17.040;2023-01-28T07:26:14;101028.50;;;1.01;82.69
63351;BME280;64988;51.058;17.040;2023-01-28T07:31:46;101037.38;;;1.02;82.87
63351;BME280;64988;51.058;17.040;2023-01-28T07:37:14;101029.22;;;1.08;83.58
63351;BME280;64988;51.058;17.040;2023-01-28T07:42:42;101038.94;;;1.09;83.83
63351;BME280;64988;51.058;17.040;2023-01-28T07:48:11;101029.28;;;1.07;84.30
63351;BME280;64988;51.058;17.040;2023-01-28T07:53:40;101032.75;;;1.09;84.57
63351;BME280;64988;51.058;17.040;2023-01-28T07:59:07;101032.84;;;1.04;84.40
63351;BME280;64988;51.058;17.040;2023-01-28T08:04:37;101038.44;;;0.95;85.54
63351;BME280;64988;51.058;17.040;2023-01-28T08:10:07;101044.63;;;0.95;84.83
63351;BME280;64988;51.058;17.040;2023-01-28T08:15:34;101042.09;;;0.91;84.49
63351;BME280;64988;51.058;17.040;2023-01-28T08:21:03;101048.00;;;1.02;84.91
63351;BME280;64988;51.058;17.040;2023-01-28T08:26:42;101048.91;;;1.01;84.64
63351;BME280;64988;51.058;17.040;2023-01-28T08:32:10;101050.75;;;0.99;84.59
63351;BME280;64988;51.058;17.040;2023-01-28T08:37:37;101053.09;;;1.10;85.09
63351;BME280;64988;51.058;17.040;2023-01-28T08:43:04;101056.94;;;0.99;83.69
63351;BME280;64988;51.058;17.040;2023-01-28T08:48:31;101050.19;;;1.19;84.24
63351;BME280;64988;51.058;17.040;2023-01-28T08:53:59;101050.97;;;1.22;83.98
63351;BME280;64988;51.058;17.040;2023-01-28T08:59:29;101063.28;;;1.25;83.80
63351;BME280;64988;51.058;17.040;2023-01-28T09:04:58;101059.75;;;1.24;84.04
63351;BME280;64988;51.058;17.040;2023-01-28T09:10:25;101054.06;;;1.36;83.39
63351;BME280;64988;51.058;17.040;2023-01-28T09:15:53;101065.00;;;1.56;83.17
63351;BME280;64988;51.058;17.040;2023-01-28T09:21:20;101064.03;;;1.59;82.52
63351;BME280;64988;51.058;17.040;2023-01-28T09:26:48;101072.00;;;1.61;82.56
63351;BME280;64988;51.058;17.040;2023-01-28T09:32:16;101080.38;;;1.47;82.00
63351;BME280;64988;51.058;17.040;2023-01-28T09:37:44;101081.19;;;1.49;82.49
63351;BME280;64988;51.058;17.040;2023-01-28T09:48:57;101098.91;;;1.19;81.72
63351;BME280;64988;51.058;17.040;2023-01-28T09:54:39;101088.97;;;1.26;85.19
63351;BME280;64988;51.058;17.040;2023-01-28T10:00:17;101093.06;;;1.37;82.67
63351;BME280;64988;51.058;17.040;2023-01-28T10:17:09;101091.78;;;1.50;82.22
63351;BME280;64988;51.058;17.040;2023-01-28T10:22:54;101086.16;;;1.30;81.38
63351;BME280;64988;51.058;17.040;2023-01-28T10:28:27;101082.25;;;1.43;81.49
63351;BME280;64988;51.058;17.040;2023-01-28T10:33:57;101088.56;;;1.70;81.65
63351;BME280;64988;51.058;17.040;2023-01-28T10:39:29;101084.78;;;1.77;80.37
63351;BME280;64988;51.058;17.040;2023-01-28T10:45:21;101087.88;;;1.91;80.69
63351;BME280;64988;51.058;17.040;2023-01-28T10:50:57;101092.75;;;2.06;80.78
63351;BME280;64988;51.058;17.040;2023-01-28T10:56:33;101087.94;;;2.18;80.32
63351;BME280;64988;51.058;17.040;2023-01-28T11:08:01;101086.59;;;2.32;78.27
63351;BME280;64988;51.058;17.040;2023-01-28T11:13:33;101099.94;;;2.31;78.19
63351;BME280;64988;51.058;17.040;2023-01-28T11:19:04;101086.72;;;2.28;77.31
63351;BME280;64988;51.058;17.040;2023-01-28T11:24:35;101092.50;;;2.42;77.69
63351;BME280;64988;51.058;17.040;2023-01-28T11:30:15;101073.91;;;2.65;78.10
63351;BME280;64988;51.058;17.040;2023-01-28T11:36:12;101085.63;;;2.61;75.63
63351;BME280;64988;51.058;17.040;2023-01-28T11:41:43;101085.44;;;2.65;76.74
63351;BME280;64988;51.058;17.040;2023-01-28T11:59:30;101086.59;;;2.58;72.98
63351;BME280;64988;51.058;17.040;2023-01-28T12:11:14;101083.16;;;2.55;72.66
63351;BME280;64988;51.058;17.040;2023-01-28T12:57:32;101088.94;;;1.86;71.88
63351;BME280;64988;51.058;17.040;2023-01-28T13:08:47;101094.34;;;1.55;72.24
63351;BME280;64988;51.058;17.040;2023-01-28T13:14:17;101100.56;;;1.54;72.96
63351;BME280;64988;51.058;17.040;2023-01-28T13:19:46;101089.69;;;1.32;71.88
63351;BME280;64988;51.058;17.040;2023-01-28T13:25:26;101102.13;;;1.30;72.22
63351;BME280;64988;51.058;17.040;2023-01-28T13:31:11;101092.75;;;1.17;71.86
63351;BME280;64988;51.058;17.040;2023-01-28T13:36:45;101106.53;;;1.31;72.47
63351;BME280;64988;51.058;17.040;2023-01-28T13:42:26;101104.84;;;1.29;72.46
63351;BME280;64988;51.058;17.040;2023-01-28T13:47:59;101111.41;;;1.16;71.99
63351;BME280;64988;51.058;17.040;2023-01-28T13:53:52;101113.94;;;1.20;72.02
63351;BME280;64988;51.058;17.040;2023-01-28T14:23:02;101130.41;;;1.00;71.07
63351;BME280;64988;51.058;17.040;2023-01-28T14:39:57;101139.25;;;1.01;72.20
63351;BME280;64988;51.058;17.040;2023-01-28T15:03:18;101151.44;;;0.77;70.04
63351;BME280;64988;51.058;17.040;2023-01-28T15:08:52;101148.88;;;0.71;69.49
63351;BME280;64988;51.058;17.040;2023-01-28T15:14:26;101160.53;;;0.67;69.27
63351;BME280;64988;51.058;17.040;2023-01-28T15:19:56;101163.84;;;0.75;71.46
63351;BME280;64988;51.058;17.040;2023-01-28T15:25:27;101172.88;;;0.68;70.49
63351;BME280;64988;51.058;17.040;2023-01-28T15:30:56;101166.75;;;0.66;70.17
63351;BME280;64988;51.058;17.040;2023-01-28T15:36:24;101175.97;;;0.51;68.51
63351;BME280;64988;51.058;17.040;2023-01-28T15:41:59;101176.03;;;0.48;69.66
63351;BME280;64988;51.058;17.040;2023-01-28T15:47:32;101185.06;;;0.41;68.93
63351;BME280;64988;51.058;17.040;2023-01-28T15:53:01;101185.97;;;0.39;69.34
63351;BME280;64988;51.058;17.040;2023-01-28T15:58:33;101191.25;;;0.42;69.79
63351;BME280;64988;51.058;17.040;2023-01-28T16:04:33;101192.16;;;0.39;70.42
63351;BME280;64988;51.058;17.040;2023-01-28T16:10:02;101194.00;;;0.37;69.97
63351;BME280;64988;51.058;17.040;2023-01-28T16:15:30;101180.06;;;0.28;68.27
63351;BME280;64988;51.058;17.040;2023-01-28T16:20:58;101197.03;;;0.21;68.42
63351;BME280;64988;51.058;17.040;2023-01-28T16:26:28;101198.94;;;0.14;67.94
63351;BME280;64988;51.058;17.040;2023-01-28T16:31:57;101199.00;;;0.11;68.35
63351;BME280;64988;51.058;17.040;2023-01-28T16:37:25;101205.97;;;0.17;70.21
63351;BME280;64988;51.058;17.040;2023-01-28T16:42:58;101210.41;;;0.16;70.08
63351;BME280;64988;51.058;17.040;2023-01-28T16:48:25;101207.66;;;0.21;71.18
63351;BME280;64988;51.058;17.040;2023-01-28T16:53:53;101197.03;;;0.21;70.91
63351;BME280;64988;51.058;17.040;2023-01-28T16:59:22;101214.81;;;0.17;70.15
63351;BME280;64988;51.058;17.040;2023-01-28T17:04:49;101203.50;;;0.08;67.34
63351;BME280;64988;51.058;17.040;2023-01-28T17:10:18;101201.53;;;0.17;70.39
63351;BME280;64988;51.058;17.040;2023-01-28T17:15:46;101203.44;;;0.12;68.61
63351;BME280;64988;51.058;17.040;2023-01-28T17:21:13;101201.59;;;0.16;70.73
63351;BME280;64988;51.058;17.040;2023-01-28T17:26:41;101201.66;;;0.13;69.53
63351;BME280;64988;51.058;17.040;2023-01-28T17:32:10;101210.44;;;0.15;71.73
63351;BME280;64988;51.058;17.040;2023-01-28T17:37:37;101209.72;;;0.07;71.27
63351;BME280;64988;51.058;17.040;2023-01-28T17:43:06;101216.03;;;0.01;70.76
63351;BME280;64988;51.058;17.040;2023-01-28T17:48:34;101226.78;;;-0.05;69.30
63351;BME280;64988;51.058;17.040;2023-01-28T17:54:02;101234.81;;;-0.08;69.39
63351;BME280;64988;51.058;17.040;2023-01-28T17:59:29;101224.28;;;-0.13;68.05
63351;BME280;64988;51.058;17.040;2023-01-28T18:04:57;101238.34;;;-0.09;68.36
63351;BME280;64988;51.058;17.040;2023-01-28T18:10:24;101262.16;;;-0.06;69.60
63351;BME280;64988;51.058;17.040;2023-01-28T18:15:52;101264.75;;;-0.03;69.99
63351;BME280;64988;51.058;17.040;2023-01-28T18:21:34;101255.22;;;-0.10;67.65
63351;BME280;64988;51.058;17.040;2023-01-28T18:27:18;101273.53;;;0.00;69.51
63351;BME280;64988;51.058;17.040;2023-01-28T18:32:47;101261.00;;;0.09;72.27
63351;BME280;64988;51.058;17.040;2023-01-28T18:38:15;101263.72;;;0.06;69.78
63351;BME280;64988;51.058;17.040;2023-01-28T18:43:45;101268.06;;;0.10;70.58
63351;BME280;64988;51.058;17.040;2023-01-28T18:49:13;101278.69;;;0.10;69.20
63351;BME280;64988;51.058;17.040;2023-01-28T18:54:41;101284.78;;;0.13;71.27
63351;BME280;64988;51.058;17.040;2023-01-28T19:00:11;101294.53;;;0.13;69.62
63351;BME280;64988;51.058;17.040;2023-01-28T19:05:40;101290.97;;;0.14;69.15
63351;BME280;64988;51.058;17.040;2023-01-28T19:11:08;101290.00;;;0.18;70.00
63351;BME280;64988;51.058;17.040;2023-01-28T19:16:36;101285.63;;;0.15;68.38
63351;BME280;64988;51.058;17.040;2023-01-28T19:22:04;101292.84;;;0.09;66.54
63351;BME280;64988;51.058;17.040;2023-01-28T19:27:31;101293.78;;;0.06;65.89
63351;BME280;64988;51.058;17.040;2023-01-28T19:32:59;101285.66;;;0.14;65.94
63351;BME280;64988;51.058;17.040;2023-01-28T19:38:27;101292.78;;;0.12;65.04
63351;BME280;64988;51.058;17.040;2023-01-28T19:43:55;101287.53;;;0.09;63.36
63351;BME280;64988;51.058;17.040;2023-01-28T19:49:22;101297.94;;;0.19;68.46
63351;BME280;64988;51.058;17.040;2023-01-28T19:54:51;101288.22;;;0.18;65.90
63351;BME280;64988;51.058;17.040;2023-01-28T20:00:23;101292.53;;;0.24;66.73
63351;BME280;64988;51.058;17.040;2023-01-28T20:05:51;101299.59;;;0.25;65.71
63351;BME280;64988;51.058;17.040;2023-01-28T20:11:18;101296.06;;;0.24;66.03
63351;BME280;64988;51.058;17.040;2023-01-28T20:16:46;101292.31;;;0.33;68.60
63351;BME280;64988;51.058;17.040;2023-01-28T20:22:13;101298.50;;;0.35;68.54
63351;BME280;64988;51.058;17.040;2023-01-28T20:27:39;101307.34;;;0.35;67.79
63351;BME280;64988;51.058;17.040;2023-01-28T20:33:07;101309.00;;;0.41;70.89
63351;BME280;64988;51.058;17.040;2023-01-28T20:38:46;101302.72;;;0.43;71.48
63351;BME280;64988;51.058;17.040;2023-01-28T20:44:13;101310.63;;;0.46;73.18
63351;BME280;64988;51.058;17.040;2023-01-28T20:49:40;101307.97;;;0.48;72.07
63351;BME280;64988;51.058;17.040;2023-01-28T20:55:08;101291.09;;;0.49;72.32
63351;BME280;64988;51.058;17.040;2023-01-28T21:00:36;101297.25;;;0.51;72.84
63351;BME280;64988;51.058;17.040;2023-01-28T21:06:03;101298.09;;;0.53;72.57
63351;BME280;64988;51.058;17.040;2023-01-28T21:11:30;101282.09;;;0.56;72.48
63351;BME280;64988;51.058;17.040;2023-01-28T21:16:58;101297.16;;;0.56;71.78
63351;BME280;64988;51.058;17.040;2023-01-28T21:22:25;101305.97;;;0.58;71.92
63351;BME280;64988;51.058;17.040;2023-01-28T21:27:52;101307.75;;;0.57;72.45
63351;BME280;64988;51.058;17.040;2023-01-28T21:33:20;101313.06;;;0.57;71.58
63351;BME280;64988;51.058;17.040;2023-01-28T21:38:51;101319.25;;;0.58;70.95
63351;BME280;64988;51.058;17.040;2023-01-28T21:44:19;101320.06;;;0.61;72.51
63351;BME280;64988;51.058;17.040;2023-01-28T21:49:46;101320.91;;;0.63;72.96
63351;BME280;64988;51.058;17.040;2023-01-28T21:55:13;101311.16;;;0.64;72.29
63351;BME280;64988;51.058;17.040;2023-01-28T22:00:40;101310.25;;;0.65;72.95
63351;BME280;64988;51.058;17.040;2023-01-28T22:06:08;101308.44;;;0.65;71.86
63351;BME280;64988;51.058;17.040;2023-01-28T22:11:35;101287.09;;;0.70;72.85
63351;BME280;64988;51.058;17.040;2023-01-28T22:17:04;101282.66;;;0.70;73.61
63351;BME280;64988;51.058;17.040;2023-01-28T22:22:33;101281.78;;;0.70;73.57
63351;BME280;64988;51.058;17.040;2023-01-28T22:28:01;101295.88;;;0.72;74.05
63351;BME280;64988;51.058;17.040;2023-01-28T22:33:28;101288.03;;;0.67;73.35
63351;BME280;64988;51.058;17.040;2023-01-28T22:38:56;101280.97;;;0.66;74.10
63351;BME280;64988;51.058;17.040;2023-01-28T22:44:23;101267.75;;;0.65;74.78
63351;BME280;64988;51.058;17.040;2023-01-28T22:49:52;101280.97;;;0.66;74.71
63351;BME280;64988;51.058;17.040;2023-01-28T22:55:19;101273.06;;;0.63;73.88
63351;BME280;64988;51.058;17.040;2023-01-28T23:00:47;101273.91;;;0.65;74.54
63351;BME280;64988;51.058;17.040;2023-01-28T23:06:16;101276.63;;;0.64;75.24
63351;BME280;64988;51.058;17.040;2023-01-28T23:11:44;101276.63;;;0.62;75.28
63351;BME280;64988;51.058;17.040;2023-01-28T23:17:12;101270.63;;;0.54;74.38
63351;BME280;64988;51.058;17.040;2023-01-28T23:22:58;101278.59;;;0.54;75.28
63351;BME280;64988;51.058;17.040;2023-01-28T23:28:44;101274.19;;;0.53;75.84
63351;BME280;64988;51.058;17.040;2023-01-28T23:34:15;101273.53;;;0.43;74.77
63351;BME280;64988;51.058;17.040;2023-01-28T23:39:43;101281.97;;;0.21;74.41
63351;BME280;64988;51.058;17.040;2023-01-28T23:45:11;101284.22;;;-0.03;74.80
63351;BME280;64988;51.058;17.040;2023-01-28T23:50:39;101288.00;;;-0.16;75.80
63351;BME280;64988;51.058;17.040;2023-01-28T23:56:07;101283.75;;;-0.23;76.51
